createdAt,value
2023-04-03T00:00:24.293Z,98956.25
2023-04-03T00:03:28.427Z,98964.03
2023-04-03T00:06:31.162Z,98956.41
2023-04-03T00:09:33.874Z,98960.09
2023-04-03T00:12:37.260Z,98958.72
2023-04-03T00:15:40.802Z,98964.34
2023-04-03T00:18:45.788Z,98958.13
2023-04-03T00:21:48.432Z,98957.16
2023-04-03T00:24:51.100Z,98965.53
2023-04-03T00:27:53.835Z,98954.66
2023-04-03T00:30:56.671Z,98959.88
2023-04-03T00:34:00.916Z,98965.66
2023-04-03T00:37:03.652Z,98959.50
2023-04-03T00:40:08.387Z,98953.75
2023-04-03T00:43:14.609Z,98953.88
2023-04-03T00:46:17.397Z,98957.78
2023-04-03T00:49:22.068Z,98957.72
2023-04-03T00:52:30.511Z,98959.34
2023-04-03T00:55:33.639Z,98957.25
2023-04-03T00:58:42.056Z,98960.34
2023-04-03T01:01:45.893Z,98957.31
2023-04-03T01:04:49.957Z,98961.09
2023-04-03T01:07:54.446Z,98957.03
2023-04-03T01:10:57.134Z,98950.88
2023-04-03T01:13:59.812Z,98944.06
2023-04-03T01:17:02.467Z,98951.13
2023-04-03T01:20:37.397Z,98952.53
2023-04-03T01:23:55.288Z,98951.25
2023-04-03T01:26:58.198Z,98949.94
2023-04-03T01:30:00.963Z,98945.22
2023-04-03T01:33:05.402Z,98951.94
2023-04-03T01:36:11.350Z,98956.31
2023-04-03T01:39:14.416Z,98957.84
2023-04-03T01:42:17.320Z,98961.34
2023-04-03T01:45:20.154Z,98964.19
2023-04-03T01:48:24.225Z,98959.78
2023-04-03T01:51:27.126Z,98954.38
2023-04-03T01:54:29.801Z,98959.50
2023-04-03T01:57:32.597Z,98959.28
2023-04-03T02:00:35.678Z,98966.56
2023-04-03T02:03:40.005Z,98959.06
2023-04-03T02:06:42.745Z,98961.94
2023-04-03T02:09:45.464Z,98962.19
2023-04-03T02:12:48.180Z,98959.56
2023-04-03T02:15:51.160Z,98967.53
2023-04-03T02:18:55.190Z,98957.06
2023-04-03T02:21:58.232Z,98962.97
2023-04-03T02:25:01.596Z,98962.31
2023-04-03T02:28:04.577Z,98959.78
2023-04-03T02:31:08.324Z,98959.63
2023-04-03T02:34:12.677Z,98961.94
2023-04-03T02:37:15.484Z,98962.81
2023-04-03T02:40:18.420Z,98966.09
2023-04-03T02:43:21.137Z,98972.94
2023-04-03T02:46:23.870Z,98961.25
2023-04-03T02:49:28.020Z,98961.06
2023-04-03T02:52:30.757Z,98955.41
2023-04-03T02:55:33.412Z,98963.13
2023-04-03T02:58:36.506Z,98960.22
2023-04-03T03:01:39.305Z,98958.16
2023-04-03T03:04:43.676Z,98964.06
2023-04-03T03:07:46.437Z,98958.50
2023-04-03T03:10:49.103Z,98959.88
2023-04-03T03:13:52.256Z,98956.09
2023-04-03T03:16:54.964Z,98959.78
2023-04-03T03:19:59.054Z,98952.97
2023-04-03T03:23:01.710Z,98947.28
2023-04-03T03:26:06.483Z,98948.69
2023-04-03T03:29:09.204Z,98946.84
2023-04-03T03:32:11.890Z,98945.38
2023-04-03T03:35:16.074Z,98942.69
2023-04-03T03:38:18.882Z,98941.38
2023-04-03T03:41:21.648Z,98949.72
2023-04-03T03:44:24.340Z,98940.94
2023-04-03T03:47:27.401Z,98944.03
2023-04-03T03:50:31.476Z,98944.84
2023-04-03T03:53:34.148Z,98948.09
2023-04-03T03:56:36.885Z,98943.94
2023-04-03T03:59:41.221Z,98953.19
2023-04-03T04:02:44.611Z,98951.88
2023-04-03T04:05:48.690Z,98955.59
2023-04-03T04:08:51.594Z,98952.25
2023-04-03T04:11:54.464Z,98958.09
2023-04-03T04:14:57.123Z,98950.78
2023-04-03T04:17:59.924Z,98970.22
2023-04-03T04:21:04.271Z,98962.38
2023-04-03T04:24:07.858Z,98953.56
2023-04-03T04:27:10.785Z,98963.13
2023-04-03T04:30:14.884Z,98966.38
2023-04-03T04:33:17.582Z,98961.19
2023-04-03T04:36:22.062Z,98963.56
2023-04-03T04:39:24.945Z,98958.31
2023-04-03T04:42:27.907Z,98961.34
2023-04-03T04:45:30.680Z,98959.25
2023-04-03T04:48:33.622Z,98956.75
2023-04-03T04:51:48.480Z,98959.84
2023-04-03T04:54:54.136Z,98961.91
2023-04-03T04:57:56.840Z,98967.25
2023-04-03T05:01:02.422Z,98957.41
2023-04-03T05:04:05.202Z,98976.47
2023-04-03T05:07:09.237Z,98972.78
2023-04-03T05:10:12.200Z,98974.03
2023-04-03T05:13:15.569Z,98976.63
2023-04-03T05:16:18.302Z,98983.72
2023-04-03T05:19:21.479Z,98991.03
2023-04-03T05:22:25.533Z,98983.72
2023-04-03T05:25:28.735Z,98989.81
2023-04-03T05:28:31.831Z,98995.19
2023-04-03T05:31:34.647Z,98996.25
2023-04-03T05:34:37.372Z,98993.59
2023-04-03T05:37:42.089Z,98991.72
2023-04-03T05:40:45.141Z,98999.09
2023-04-03T05:43:48.533Z,98993.13
2023-04-03T05:46:51.553Z,98995.94
2023-04-03T05:49:54.828Z,99002.88
2023-04-03T05:52:59.968Z,99001.03
2023-04-03T05:56:03.009Z,99004.72
2023-04-03T05:59:05.716Z,99012.13
2023-04-03T06:02:08.627Z,99007.63
2023-04-03T06:05:12.626Z,99017.00
2023-04-03T06:08:16.685Z,99017.31
2023-04-03T06:11:19.617Z,99012.53
2023-04-03T06:14:22.441Z,99014.63
2023-04-03T06:17:25.552Z,99027.13
2023-04-03T06:20:28.505Z,99019.50
2023-04-03T06:23:33.873Z,99025.63
2023-04-03T06:26:37.340Z,99031.19
2023-04-03T06:29:40.831Z,99036.34
2023-04-03T06:32:44.005Z,99035.09
2023-04-03T06:35:47.724Z,99041.75
2023-04-03T06:38:52.350Z,99034.03
2023-04-03T06:41:55.079Z,99034.94
2023-04-03T06:44:57.752Z,99027.75
2023-04-03T06:48:00.995Z,99039.78
2023-04-03T06:51:04.278Z,99043.63
2023-04-03T06:54:09.216Z,99041.34
2023-04-03T06:57:12.228Z,99040.94
2023-04-03T07:00:17.287Z,99048.63
2023-04-03T07:03:20.363Z,99044.69
2023-04-03T07:06:23.571Z,99044.69
2023-04-03T07:09:27.733Z,99047.06
2023-04-03T07:12:30.824Z,99050.53
2023-04-03T07:15:34.539Z,99054.41
2023-04-03T07:18:37.965Z,99057.91
2023-04-03T07:21:41.654Z,99065.16
2023-04-03T07:24:46.279Z,99053.88
2023-04-03T07:27:50.059Z,99056.53
2023-04-03T07:30:54.971Z,99053.41
2023-04-03T07:33:57.967Z,99070.03
2023-04-03T07:37:02.145Z,99062.41
2023-04-03T07:40:07.979Z,99067.13
2023-04-03T07:43:11.020Z,99072.28
2023-04-03T07:46:13.890Z,99065.25
2023-04-03T07:49:19.005Z,99070.81
2023-04-03T07:52:21.850Z,99082.16
2023-04-03T07:55:26.191Z,99065.72
2023-04-03T07:58:28.858Z,99076.81
2023-04-03T08:01:33.526Z,99074.47
2023-04-03T08:04:36.741Z,99071.03
2023-04-03T08:07:40.112Z,99082.06
2023-04-03T08:10:44.667Z,99080.94
2023-04-03T08:13:47.924Z,99084.06
2023-04-03T08:16:51.441Z,99082.66
2023-04-03T08:19:54.713Z,99090.22
2023-04-03T08:22:57.447Z,99083.63
2023-04-03T08:26:01.633Z,99092.66
2023-04-03T08:29:04.669Z,99091.13
2023-04-03T08:32:07.696Z,99078.47
2023-04-03T08:35:11.728Z,99082.22
2023-04-03T08:38:14.796Z,99081.50
2023-04-03T08:41:31.452Z,99087.56
2023-04-03T08:44:44.526Z,99080.13
2023-04-03T08:47:56.451Z,99084.63
2023-04-03T08:51:03.677Z,99084.88
2023-04-03T08:54:17.703Z,99081.06
2023-04-03T08:57:29.063Z,99094.63
2023-04-03T09:00:43.853Z,99102.50
2023-04-03T09:03:47.065Z,99096.91
2023-04-03T09:06:55.112Z,99096.91
2023-04-03T09:10:02.234Z,99106.22
2023-04-03T09:13:11.775Z,99098.91
2023-04-03T09:16:23.575Z,99092.88
2023-04-03T09:19:38.326Z,99093.47
2023-04-03T09:22:49.812Z,99097.75
2023-04-03T09:26:00.117Z,99096.72
2023-04-03T09:29:09.405Z,99096.38
2023-04-03T09:32:23.588Z,99091.38
2023-04-03T09:35:40.475Z,99096.81
2023-04-03T09:39:05.511Z,99089.06
2023-04-03T09:42:20.430Z,99089.97
2023-04-03T09:45:27.519Z,99089.41
2023-04-03T09:48:30.456Z,99094.50
2023-04-03T09:51:33.990Z,99086.72
2023-04-03T09:54:41.062Z,99087.56
2023-04-03T09:57:44.385Z,99085.47
2023-04-03T10:00:57.004Z,99088.47
2023-04-03T10:04:10.010Z,99082.09
2023-04-03T10:07:30.938Z,99081.00
2023-04-03T10:10:33.909Z,99086.91
2023-04-03T10:13:48.756Z,99078.81
2023-04-03T10:17:01.796Z,99078.56
2023-04-03T10:20:12.841Z,99074.28
2023-04-03T10:23:21.370Z,99070.59
2023-04-03T10:26:34.973Z,99071.53
2023-04-03T10:29:44.785Z,99069.78
2023-04-03T10:32:57.692Z,99075.22
2023-04-03T10:36:10.410Z,99079.06
2023-04-03T10:39:23.410Z,99066.28
2023-04-03T10:42:33.719Z,99077.75
2023-04-03T10:45:52.365Z,99068.00
2023-04-03T10:49:08.297Z,99079.25
2023-04-03T10:52:19.537Z,99072.41
2023-04-03T10:55:31.165Z,99075.69
2023-04-03T10:58:38.253Z,99073.03
2023-04-03T11:01:44.508Z,99064.53
2023-04-03T11:04:55.314Z,99074.53
2023-04-03T11:08:03.608Z,99071.78
2023-04-03T11:11:10.681Z,99062.25
2023-04-03T11:14:19.891Z,99066.88
2023-04-03T11:17:31.572Z,99062.94
2023-04-03T11:20:38.875Z,99057.91
2023-04-03T11:23:49.376Z,99060.16
2023-04-03T11:26:55.523Z,99060.34
2023-04-03T11:29:59.533Z,99056.66
2023-04-03T11:33:31.237Z,99058.06
2023-04-03T11:36:42.713Z,99056.78
2023-04-03T11:39:55.988Z,99053.78
2023-04-03T11:43:08.701Z,99049.94
2023-04-03T11:46:11.949Z,99052.34
2023-04-03T11:49:47.924Z,99056.56
2023-04-03T11:53:01.592Z,99048.22
2023-04-03T11:56:06.722Z,99047.75
2023-04-03T11:59:28.541Z,99037.75
2023-04-03T12:05:44.915Z,99035.66
2023-04-03T12:08:52.535Z,99030.16
2023-04-03T12:11:56.681Z,99028.25
2023-04-03T12:15:21.873Z,99028.56
2023-04-03T12:18:43.583Z,99028.63
2023-04-03T12:22:29.238Z,99028.69
2023-04-03T12:25:51.384Z,99026.16
2023-04-03T12:28:56.557Z,99024.44
2023-04-03T12:32:11.536Z,99028.53
2023-04-03T12:35:24.785Z,99023.31
2023-04-03T12:38:54.527Z,99013.81
2023-04-03T12:42:12.574Z,99008.97
2023-04-03T12:45:21.454Z,99013.16
2023-04-03T12:48:27.980Z,99012.59
2023-04-03T12:51:37.229Z,99013.75
2023-04-03T12:54:41.810Z,99017.63
2023-04-03T12:57:46.777Z,99016.41
2023-04-03T13:01:02.272Z,99026.34
2023-04-03T13:04:05.280Z,99016.44
2023-04-03T13:07:20.515Z,99010.53
2023-04-03T13:10:23.218Z,98998.22
2023-04-03T13:13:27.484Z,99007.63
2023-04-03T13:16:30.669Z,98999.44
2023-04-03T13:19:33.528Z,99004.13
2023-04-03T13:22:42.569Z,99000.84
2023-04-03T13:25:48.340Z,98999.19
2023-04-03T13:28:53.868Z,99000.81
2023-04-03T13:31:58.968Z,98996.00
2023-04-03T13:35:15.616Z,98999.50
2023-04-03T13:38:26.411Z,98990.50
2023-04-03T13:41:33.754Z,98991.28
2023-04-03T13:44:40.753Z,98987.03
2023-04-03T13:47:45.638Z,98987.44
2023-04-03T13:51:00.791Z,98980.78
2023-04-03T13:54:20.046Z,98995.47
2023-04-03T13:57:23.446Z,98983.22
2023-04-03T14:00:39.506Z,98987.59
2023-04-03T14:03:46.208Z,98988.75
2023-04-03T14:06:50.452Z,98987.78
2023-04-03T14:09:54.880Z,98983.63
2023-04-03T14:12:57.800Z,98982.53
2023-04-03T14:16:15.730Z,98986.63
2023-04-03T14:19:23.179Z,98985.16
2023-04-03T14:22:29.446Z,98984.41
2023-04-03T14:25:33.104Z,98977.53
2023-04-03T14:28:36.383Z,98974.59
2023-04-03T14:31:40.923Z,98970.97
2023-04-03T14:34:44.923Z,98963.97
2023-04-03T14:37:49.163Z,98964.78
2023-04-03T14:40:52.008Z,98968.44
2023-04-03T14:43:55.354Z,98972.81
2023-04-03T14:46:59.618Z,98971.50
2023-04-03T14:50:03.329Z,98960.22
2023-04-03T14:53:06.184Z,98961.44
2023-04-03T14:56:15.128Z,98956.09
2023-04-03T14:59:20.972Z,98955.13
2023-04-03T15:02:33.792Z,98953.88
2023-04-03T15:05:38.327Z,98952.28
2023-04-03T15:08:42.130Z,98948.19
2023-04-03T15:11:45.056Z,98941.50
2023-04-03T15:14:57.458Z,98950.34
2023-04-03T15:18:05.807Z,98942.66
2023-04-03T15:21:08.646Z,98943.09
2023-04-03T15:24:12.413Z,98948.03
2023-04-03T15:27:16.419Z,98943.63
2023-04-03T15:30:20.795Z,98936.59
2023-04-03T15:33:25.370Z,98946.34
2023-04-03T15:36:34.687Z,98953.72
2023-04-03T15:39:37.929Z,98949.41
2023-04-03T15:42:41.311Z,98955.78
2023-04-03T15:45:44.923Z,98947.59
2023-04-03T15:48:50.533Z,98957.41
2023-04-03T15:51:53.533Z,98946.03
2023-04-03T15:54:56.666Z,98951.31
2023-04-03T15:57:59.497Z,98940.97
2023-04-03T16:01:02.643Z,98943.84
2023-04-03T16:04:09.400Z,98943.13
2023-04-03T16:07:12.402Z,98938.81
2023-04-03T16:10:18.591Z,98947.03
2023-04-03T16:13:21.208Z,98944.91
2023-04-03T16:16:25.469Z,98937.19
2023-04-03T16:19:30.882Z,98944.03
2023-04-03T16:22:33.927Z,98957.38
2023-04-03T16:25:37.182Z,98967.38
2023-04-03T16:28:40.089Z,98960.38
2023-04-03T16:31:42.939Z,98960.78
2023-04-03T16:34:47.063Z,98960.25
2023-04-03T16:37:50.000Z,98964.19
2023-04-03T16:40:53.451Z,98963.38
2023-04-03T16:43:56.262Z,98963.34
2023-04-03T16:46:59.924Z,98960.53
2023-04-03T16:50:04.323Z,98964.38
2023-04-03T16:53:10.297Z,98967.94
2023-04-03T16:56:12.984Z,98973.66
2023-04-03T16:59:15.782Z,98967.72
2023-04-03T17:02:18.450Z,98967.38
2023-04-03T17:05:22.492Z,98968.19
2023-04-03T17:08:25.103Z,98955.88
2023-04-03T17:11:28.629Z,98955.63
2023-04-03T17:14:31.417Z,98971.44
2023-04-03T17:17:34.261Z,98969.56
2023-04-03T17:20:39.239Z,98970.03
2023-04-03T17:23:43.112Z,98962.94
2023-04-03T17:26:46.154Z,98967.25
2023-04-03T17:29:49.026Z,98963.22
2023-04-03T17:32:52.024Z,98962.53
2023-04-03T17:35:58.018Z,98954.31
2023-04-03T17:39:00.851Z,98958.25
2023-04-03T17:42:03.562Z,98954.09
2023-04-03T17:45:08.100Z,98955.13
2023-04-03T17:48:12.096Z,98960.25
2023-04-03T17:51:18.191Z,98957.69
2023-04-03T17:54:21.117Z,98961.19
2023-04-03T17:57:23.855Z,98963.03
2023-04-03T18:00:26.892Z,98963.72
2023-04-03T18:03:30.182Z,98966.53
2023-04-03T18:06:39.469Z,98968.72
2023-04-03T18:09:42.426Z,98965.22
2023-04-03T18:12:45.397Z,98966.38
2023-04-03T18:15:48.204Z,98975.47
2023-04-03T18:19:02.475Z,98973.84
2023-04-03T18:22:19.425Z,98969.78
2023-04-03T18:25:22.492Z,98973.84
2023-04-03T18:28:26.960Z,98978.00
2023-04-03T18:31:33.744Z,98975.47
2023-04-03T18:34:36.946Z,98978.47
2023-04-03T18:37:41.475Z,98986.38
2023-04-03T18:40:44.826Z,98989.50
2023-04-03T18:43:48.421Z,98985.00
2023-04-03T18:46:52.641Z,98986.16
2023-04-03T18:49:55.536Z,98980.94
2023-04-03T18:52:59.539Z,98990.56
2023-04-03T18:56:02.287Z,98991.59
2023-04-03T18:59:06.286Z,98999.25
2023-04-03T19:02:10.451Z,98995.31
2023-04-03T19:05:16.155Z,98996.47
2023-04-03T19:08:20.476Z,99005.16
2023-04-03T19:11:23.701Z,99004.22
2023-04-03T19:14:26.393Z,99001.31
2023-04-03T19:17:29.398Z,99009.53
2023-04-03T19:20:32.369Z,98997.47
2023-04-03T19:23:36.705Z,99001.97
2023-04-03T19:26:39.877Z,99001.63
2023-04-03T19:29:42.613Z,98994.09
2023-04-03T19:32:45.505Z,98997.81
2023-04-03T19:35:48.221Z,98998.84
2023-04-03T19:38:52.254Z,99000.47
2023-04-03T19:41:55.038Z,98998.28
2023-04-03T19:44:58.458Z,98995.34
2023-04-03T19:48:01.550Z,99003.78
2023-04-03T19:51:06.062Z,99012.50
2023-04-03T19:54:10.882Z,99005.91
2023-04-03T19:57:14.254Z,99006.44
2023-04-03T20:00:18.283Z,99010.63
2023-04-03T20:03:21.213Z,99007.78
2023-04-03T20:06:25.017Z,99009.53
2023-04-03T20:09:29.069Z,99012.63
2023-04-03T20:12:31.789Z,99014.31
2023-04-03T20:15:40.296Z,99016.78
2023-04-03T20:18:43.024Z,99012.22
2023-04-03T20:21:45.889Z,99020.03
2023-04-03T20:24:50.010Z,99021.31
2023-04-03T20:27:54.170Z,99013.09
2023-04-03T20:30:57.274Z,99011.97
2023-04-03T20:34:00.199Z,99016.31
2023-04-03T20:37:02.932Z,99000.41
2023-04-03T20:40:09.109Z,99017.44
2023-04-03T20:43:12.076Z,99017.44
2023-04-03T20:46:19.444Z,99015.88
2023-04-03T20:49:23.291Z,99012.25
2023-04-03T20:52:26.213Z,99010.03
2023-04-03T20:55:30.995Z,99009.88
2023-04-03T20:58:34.377Z,99014.59
2023-04-03T21:01:40.028Z,99009.16
2023-04-03T21:04:51.263Z,99009.16
2023-04-03T21:08:33.587Z,99010.31
2023-04-03T21:12:16.770Z,99006.50
2023-04-03T21:15:47.887Z,99003.81
2023-04-03T21:19:07.350Z,99014.06
2023-04-03T21:22:10.879Z,99006.31
2023-04-03T21:25:14.007Z,99005.94
2023-04-03T21:28:17.317Z,99004.69
2023-04-03T21:31:21.180Z,99004.00
2023-04-03T21:34:28.066Z,99008.97
2023-04-03T21:37:34.320Z,99006.66
2023-04-03T21:40:37.164Z,99011.06
2023-04-03T21:43:39.801Z,99017.69
2023-04-03T21:46:42.510Z,99015.31
2023-04-03T21:49:47.540Z,99020.91
2023-04-03T21:52:53.977Z,99021.72
2023-04-03T21:55:57.350Z,99023.41
2023-04-03T21:59:02.298Z,99019.13
2023-04-03T22:02:05.830Z,99017.72
2023-04-03T22:05:11.538Z,99025.69
2023-04-03T22:08:14.544Z,99016.25
2023-04-03T22:11:17.466Z,99027.16
2023-04-03T22:14:20.305Z,99031.06
2023-04-03T22:17:23.089Z,99027.66
2023-04-03T22:20:27.261Z,99027.03
2023-04-03T22:23:30.047Z,99031.22
2023-04-03T22:26:32.828Z,99021.84
2023-04-03T22:29:35.611Z,99021.06
2023-04-03T22:32:39.093Z,99023.25
2023-04-03T22:35:48.042Z,99026.75
2023-04-03T22:38:50.974Z,99012.50
2023-04-03T22:41:53.809Z,99025.38
2023-04-03T22:44:56.910Z,99024.41
2023-04-03T22:48:00.259Z,99025.19
2023-04-03T22:51:08.111Z,99031.50
2023-04-03T22:54:10.826Z,99034.13
2023-04-03T22:57:13.561Z,99025.84
2023-04-03T23:00:17.484Z,99028.50
2023-04-03T23:03:20.198Z,99029.53
2023-04-03T23:06:24.281Z,99027.69
2023-04-03T23:09:26.918Z,99021.38
2023-04-03T23:12:29.551Z,99024.44
2023-04-03T23:15:32.233Z,99020.16
2023-04-03T23:18:34.947Z,99029.78
2023-04-03T23:21:39.344Z,99031.81
2023-04-03T23:24:42.031Z,99036.69
2023-04-03T23:27:51.520Z,99045.72
2023-04-03T23:30:59.273Z,99045.53
2023-04-03T23:34:02.106Z,99045.97
2023-04-03T23:37:06.553Z,99043.53
2023-04-03T23:40:10.854Z,99037.63
2023-04-03T23:43:14.181Z,99036.41
2023-04-03T23:46:17.150Z,99039.88
2023-04-03T23:49:19.948Z,99037.47
2023-04-03T23:52:24.025Z,99039.72
2023-04-03T23:55:27.165Z,99039.69
2023-04-03T23:58:29.961Z,99037.88
